Detall de PIREP

Printer-friendly versionPDF version

[2011/06/13 10:02:00]
Flight IATA:CT3235
Pilot Number:042
Company ICAO:CAT
Aircraft Type:B763/F
PAX:200
Departing Airport: LFPG
Destination Airport: LEPA
Alternate Airport:LEBL
Online: VATSIM
Route:ERIXU UN860 ETAMO UN855 PPG UP84 LORES
Flight Level:F350
No Slew and time accel
No pause
Crash detect
Detect pilot in Cockpit between each 30 and 45 minutes
10:02 Zero fuel Weight: 244976 Lbs, Fuel Weight: 161669 Lbs
10:02 VATSIM:LFPG 130930Z 21010KT 180V250 9999 FEW029 BKN050 20/12 Q1016 NOSIG
10:02 VATSIM:LEPA 130930Z 20003KT 150V250 9999 FEW030 27/13 Q1018 BECMG 22012KT
10:02 VOICE CATALONIAN
10:11 Parking Brakes off
10:20 Take-off
10:20 Take off Weight: 404098 Lbs
10:20 Wind: 229 @ 009 Knots Heading: 264
10:20 POS N48 59 50 E002 34 57
10:20 Gear Up: 183 Knots
10:20 Flaps:3 at 183 Knots
10:21 Flaps:2 at 187 Knots
10:21 Flaps:1 at 202 Knots
10:22 Flaps:0at 232 Knots
10:35 Wind:341@022 Knots Heading: 152 Ground Speed: 477 Knots Altitude 32814 ft
10:36 TOC
10:36 Fuel Weight: 151053 Lb
10:50 Wind:312@017 Knots Heading: 159 Ground Speed: 499 Knots Altitude 35137 ft
11:05 Wind:273@051 Knots Heading: 185 Ground Speed: 485 Knots Altitude 35180 ft
11:20 Wind:274@061 Knots Heading: 192 Ground Speed: 485 Knots Altitude 35111 ft
11:23 TOD
11:23 Fuel Weight: 140932 Lb
11:35 Wind:270@031 Knots Heading: 154 Ground Speed: 332 Knots Altitude 15131 ft
11:42 Flaps:1 at 241 Knots
11:43 Flaps:2 at 222 Knots
11:44 Flaps:3 at 204 Knots
11:46 Gear Down: 176 Knots
11:46 Flaps:4 at 174 Knots
11:48 Flaps:5 at 165 Knots
11:48 Flaps:6 at 156 Knots
11:50 Wind:214@007 Knots Heading: 237 Ground Speed: 153 Knots Altitude 1072 ft
11:51 TouchDown:Rate -172 ft/min Speed: 136 Knots
11:51 VATSIM:LEPA 131130Z 25008KT 220V300 9999 FEW030 27/15 Q1017 NOSIG
11:51 Land
11:51 Wind:216@008 Knots
11:51 Heading: 238
11:51 Flight Duration: 01:31
11:51 Landing Weight: 381973 Lbs
11:51 POS N39 33 12 E002 43 27
11:53 Parking brakes on
11:53 Block to Block Duration: 01:42
11:53 Final Fuel: 136616 Lbls
11:53 Spent Fuel: 25052 Lbls
11:53 Flight Length: 619 NM
11:53 TOD Land Length: 137 NM

Exportar CSV

Powered by Drupal - Modified by Danger4k